createdAt,value
2023-01-17T00:01:55.435Z,84.10
2023-01-17T00:04:41.264Z,84.10
2023-01-17T00:07:29.707Z,84.10
2023-01-17T00:09:59.156Z,84.20
2023-01-17T00:12:29.103Z,84.10
2023-01-17T00:14:59.915Z,84.10
2023-01-17T00:17:29.815Z,84.10
2023-01-17T00:20:15.906Z,84.00
2023-01-17T00:23:02.689Z,84.00
2023-01-17T00:25:51.408Z,84.10
2023-01-17T00:28:18.742Z,84.00
2023-01-17T00:30:47.281Z,84.00
2023-01-17T00:33:14.475Z,84.00
2023-01-17T00:35:41.964Z,84.10
2023-01-17T00:38:10.972Z,84.00
2023-01-17T00:40:39.562Z,84.10
2023-01-17T00:43:26.091Z,84.10
2023-01-17T00:46:13.391Z,84.10
2023-01-17T00:48:59.856Z,84.10
2023-01-17T00:51:46.960Z,84.10
2023-01-17T00:54:32.997Z,84.20
2023-01-17T00:57:19.255Z,84.10
2023-01-17T01:00:05.174Z,84.20
2023-01-17T01:02:52.890Z,84.20
2023-01-17T01:05:38.738Z,84.30
2023-01-17T01:08:36.062Z,84.30
2023-01-17T01:11:24.835Z,84.30
2023-01-17T01:14:10.296Z,84.40
2023-01-17T01:16:56.244Z,84.30
2023-01-17T01:19:43.699Z,84.30
2023-01-17T01:22:29.120Z,84.40
2023-01-17T01:25:14.785Z,84.40
2023-01-17T01:28:00.271Z,84.50
2023-01-17T01:30:45.616Z,84.40
2023-01-17T01:33:20.629Z,84.40
2023-01-17T01:35:54.732Z,84.50
2023-01-17T01:38:25.351Z,84.60
2023-01-17T01:40:55.538Z,84.60
2023-01-17T01:43:43.569Z,84.60
2023-01-17T01:46:13.976Z,84.70
2023-01-17T01:48:46.525Z,84.70
2023-01-17T01:51:20.533Z,84.70
2023-01-17T01:53:53.538Z,84.80
2023-01-17T01:56:23.587Z,85.60
2023-01-17T01:58:53.963Z,84.90
2023-01-17T02:01:22.668Z,84.90
2023-01-17T02:03:51.774Z,84.90
2023-01-17T02:06:32.450Z,85.00
2023-01-17T02:09:05.020Z,85.00
2023-01-17T02:11:33.865Z,85.00
2023-01-17T02:14:02.177Z,85.10
2023-01-17T02:16:45.317Z,85.10
2023-01-17T02:19:46.186Z,85.10
2023-01-17T02:22:39.862Z,85.20
2023-01-17T02:25:26.581Z,85.20
2023-01-17T02:28:09.966Z,85.20
2023-01-17T02:30:43.457Z,85.20
2023-01-17T02:33:22.090Z,85.30
2023-01-17T02:35:57.777Z,85.30
2023-01-17T02:38:35.050Z,85.30
2023-01-17T02:41:07.744Z,86.20
2023-01-17T02:43:37.463Z,85.30
2023-01-17T02:46:09.571Z,85.30
2023-01-17T02:48:38.580Z,85.40
2023-01-17T02:51:25.440Z,85.40
2023-01-17T02:54:08.908Z,85.30
2023-01-17T02:56:53.493Z,85.40
2023-01-17T02:59:34.425Z,85.40
2023-01-17T03:02:12.477Z,85.40
2023-01-17T03:04:48.164Z,85.40
2023-01-17T03:07:20.163Z,85.50
2023-01-17T03:09:53.548Z,85.50
2023-01-17T03:12:22.016Z,85.50
2023-01-17T03:14:52.937Z,85.50
2023-01-17T03:17:22.987Z,85.60
2023-01-17T03:19:51.407Z,85.60
2023-01-17T03:22:19.625Z,86.40
2023-01-17T03:24:48.046Z,85.60
2023-01-17T03:27:16.282Z,85.60
2023-01-17T03:29:44.467Z,85.60
2023-01-17T03:32:12.689Z,85.70
2023-01-17T03:34:42.298Z,85.70
2023-01-17T03:37:10.461Z,85.70
2023-01-17T03:39:38.668Z,85.70
2023-01-17T03:42:06.982Z,85.70
2023-01-17T03:44:36.347Z,85.80
2023-01-17T03:47:04.934Z,85.70
2023-01-17T03:49:33.238Z,85.90
2023-01-17T03:52:02.752Z,85.80
2023-01-17T03:54:30.927Z,85.90
2023-01-17T03:56:59.137Z,85.80
2023-01-17T03:59:27.512Z,85.90
2023-01-17T04:01:55.745Z,85.90
2023-01-17T04:04:24.729Z,85.90
2023-01-17T04:06:53.026Z,85.90
2023-01-17T04:09:22.816Z,85.90
2023-01-17T04:11:51.111Z,86.10
2023-01-17T04:14:19.265Z,86.20
2023-01-17T04:16:47.693Z,86.00
2023-01-17T04:19:15.912Z,86.10
2023-01-17T04:21:45.334Z,86.00
2023-01-17T04:24:13.465Z,86.90
2023-01-17T04:26:42.991Z,86.20
2023-01-17T04:29:11.205Z,86.20
2023-01-17T04:31:39.464Z,86.20
2023-01-17T04:34:07.655Z,86.10
2023-01-17T04:36:35.840Z,86.20
2023-01-17T04:39:04.136Z,86.20
2023-01-17T04:41:32.274Z,86.10
2023-01-17T04:44:02.115Z,86.20
2023-01-17T04:46:30.265Z,86.20
2023-01-17T04:48:59.055Z,86.20
2023-01-17T04:51:27.419Z,86.20
2023-01-17T04:53:55.683Z,86.20
2023-01-17T04:56:23.915Z,86.20
2023-01-17T04:58:52.789Z,86.20
2023-01-17T05:01:22.544Z,86.20
2023-01-17T05:03:50.885Z,86.20
2023-01-17T05:06:19.090Z,86.20
2023-01-17T05:08:47.227Z,86.20
2023-01-17T05:11:15.614Z,86.20
2023-01-17T05:13:43.758Z,86.20
2023-01-17T05:16:12.019Z,86.00
2023-01-17T05:18:41.531Z,85.90
2023-01-17T05:21:09.798Z,85.60
2023-01-17T05:23:37.993Z,85.10
2023-01-17T05:26:06.455Z,84.80
2023-01-17T05:28:34.612Z,84.60
2023-01-17T05:31:02.793Z,84.50
2023-01-17T05:33:31.169Z,84.50
2023-01-17T05:36:00.705Z,84.40
2023-01-17T05:38:28.884Z,84.60
2023-01-17T05:41:00.111Z,84.60
2023-01-17T05:43:28.496Z,84.90
2023-01-17T05:45:57.203Z,84.80
2023-01-17T05:48:25.553Z,85.20
2023-01-17T05:50:53.779Z,85.30
2023-01-17T05:53:23.580Z,85.50
2023-01-17T05:55:51.744Z,85.50
2023-01-17T05:58:22.200Z,85.50
2023-01-17T06:00:50.926Z,85.60
2023-01-17T06:03:19.084Z,85.80
2023-01-17T06:05:47.441Z,85.90
2023-01-17T06:08:15.809Z,86.70
2023-01-17T06:10:45.348Z,85.80
2023-01-17T06:13:16.698Z,86.00
2023-01-17T06:15:44.963Z,86.00
2023-01-17T06:18:14.474Z,86.10
2023-01-17T06:20:43.336Z,86.10
2023-01-17T06:23:13.426Z,86.10
2023-01-17T06:25:43.977Z,86.00
2023-01-17T06:28:14.698Z,86.00
2023-01-17T06:30:43.861Z,85.90
2023-01-17T06:33:12.191Z,85.80
2023-01-17T06:35:41.149Z,86.10
2023-01-17T06:38:10.296Z,85.70
2023-01-17T06:40:38.520Z,85.80
2023-01-17T06:43:07.087Z,85.70
2023-01-17T06:45:37.302Z,85.50
2023-01-17T06:48:06.397Z,86.00
2023-01-17T06:50:35.629Z,85.10
2023-01-17T06:53:06.345Z,84.80
2023-01-17T06:55:35.659Z,85.40
2023-01-17T06:58:03.924Z,84.60
2023-01-17T07:00:34.957Z,84.50
2023-01-17T07:03:04.827Z,84.40
2023-01-17T07:05:33.018Z,84.30
2023-01-17T07:08:01.285Z,83.90
2023-01-17T07:10:29.625Z,83.90
2023-01-17T07:13:00.882Z,83.90
2023-01-17T07:15:29.251Z,84.00
2023-01-17T07:17:57.475Z,83.70
2023-01-17T07:20:27.062Z,83.70
2023-01-17T07:22:55.331Z,83.70
2023-01-17T07:25:23.815Z,83.60
2023-01-17T07:27:57.424Z,83.70
2023-01-17T07:30:27.003Z,83.60
2023-01-17T07:32:56.210Z,83.50
2023-01-17T07:35:27.197Z,83.50
2023-01-17T07:37:55.948Z,83.50
2023-01-17T07:40:24.443Z,83.50
2023-01-17T07:42:52.698Z,83.50
2023-01-17T07:45:21.969Z,83.40
2023-01-17T07:47:50.240Z,83.50
2023-01-17T07:50:18.595Z,83.40
2023-01-17T07:52:51.797Z,83.50
2023-01-17T07:55:20.015Z,83.50
2023-01-17T07:57:51.240Z,84.30
2023-01-17T08:00:20.289Z,83.40
2023-01-17T08:02:48.463Z,83.60
2023-01-17T08:05:17.544Z,83.60
2023-01-17T08:07:45.736Z,84.40
2023-01-17T08:10:18.004Z,83.40
2023-01-17T08:12:47.054Z,83.60
2023-01-17T08:15:15.726Z,83.70
2023-01-17T08:17:47.440Z,83.70
2023-01-17T08:20:16.208Z,83.80
2023-01-17T08:22:44.415Z,83.90
2023-01-17T08:25:13.512Z,84.10
2023-01-17T08:27:43.139Z,84.10
2023-01-17T08:30:12.454Z,84.30
2023-01-17T08:32:41.200Z,84.40
2023-01-17T08:35:10.219Z,84.40
2023-01-17T08:37:39.054Z,84.30
2023-01-17T08:40:09.041Z,84.40
2023-01-17T08:42:40.130Z,84.40
2023-01-17T08:45:11.249Z,84.50
2023-01-17T08:47:39.773Z,85.40
2023-01-17T08:50:08.576Z,84.50
2023-01-17T08:52:37.179Z,84.50
2023-01-17T08:55:09.000Z,84.50
2023-01-17T08:57:37.190Z,84.60
2023-01-17T09:00:07.354Z,84.50
2023-01-17T09:02:37.694Z,84.50
2023-01-17T09:05:06.672Z,84.40
2023-01-17T09:07:34.975Z,84.50
2023-01-17T09:10:03.331Z,84.40
2023-01-17T09:12:34.308Z,84.40
2023-01-17T09:15:02.928Z,84.30
2023-01-17T09:17:31.442Z,84.30
2023-01-17T09:20:01.118Z,84.40
2023-01-17T09:22:29.305Z,84.40
2023-01-17T09:24:57.725Z,84.50
2023-01-17T09:27:26.113Z,84.50
2023-01-17T09:29:54.321Z,84.40
2023-01-17T09:32:22.627Z,84.40
2023-01-17T09:34:50.910Z,84.30
2023-01-17T09:37:20.484Z,84.40
2023-01-17T09:39:48.639Z,84.40
2023-01-17T09:42:26.831Z,84.40
2023-01-17T09:44:55.410Z,84.60
2023-01-17T09:47:35.614Z,84.40
2023-01-17T09:50:18.277Z,84.30
2023-01-17T09:52:48.356Z,84.30
2023-01-17T09:55:18.184Z,84.50
2023-01-17T09:57:55.308Z,84.30
2023-01-17T10:00:38.530Z,84.30
2023-01-17T10:03:27.445Z,84.40
2023-01-17T10:06:06.995Z,84.40
2023-01-17T10:09:03.923Z,84.50
2023-01-17T10:11:39.645Z,85.30
2023-01-17T10:14:21.413Z,84.50
2023-01-17T10:16:56.255Z,84.60
2023-01-17T10:19:47.696Z,84.50
2023-01-17T10:22:46.447Z,84.50
2023-01-17T10:25:33.191Z,84.40
2023-01-17T10:28:06.338Z,84.50
2023-01-17T10:30:39.013Z,84.60
2023-01-17T10:33:15.965Z,84.60
2023-01-17T10:35:53.712Z,84.50
2023-01-17T10:38:26.627Z,84.70
2023-01-17T10:41:01.802Z,84.80
2023-01-17T10:43:40.699Z,84.90
2023-01-17T10:46:17.092Z,84.80
2023-01-17T10:48:47.047Z,84.60
2023-01-17T10:51:49.899Z,84.50
2023-01-17T10:54:36.111Z,84.40
2023-01-17T10:57:06.230Z,84.30
2023-01-17T10:59:37.189Z,84.50
2023-01-17T11:02:19.924Z,84.40
2023-01-17T11:04:52.118Z,84.50
2023-01-17T11:07:22.584Z,84.50
2023-01-17T11:09:53.440Z,84.50
2023-01-17T11:12:27.935Z,84.50
2023-01-17T11:15:02.182Z,84.40
2023-01-17T11:17:31.302Z,84.50
2023-01-17T11:20:16.971Z,84.50
2023-01-17T11:22:49.990Z,84.50
2023-01-17T11:25:23.339Z,84.50
2023-01-17T11:28:03.493Z,84.60
2023-01-17T11:30:31.802Z,84.70
2023-01-17T11:33:01.404Z,84.70
2023-01-17T11:35:31.341Z,84.50
2023-01-17T11:38:06.393Z,84.70
2023-01-17T11:40:39.293Z,84.60
2023-01-17T11:43:21.203Z,84.80
2023-01-17T11:46:02.917Z,85.60
2023-01-17T11:48:36.927Z,84.80
2023-01-17T11:51:13.394Z,84.80
2023-01-17T11:53:47.111Z,84.80
2023-01-17T11:56:22.283Z,84.80
2023-01-17T11:58:52.488Z,84.70
2023-01-17T12:01:34.925Z,84.80
2023-01-17T12:04:23.057Z,84.90
2023-01-17T12:07:05.137Z,84.90
2023-01-17T12:09:39.955Z,84.80
2023-01-17T12:12:34.927Z,84.90
2023-01-17T12:15:18.501Z,84.80
2023-01-17T12:18:15.918Z,84.70
2023-01-17T12:20:52.477Z,84.60
2023-01-17T12:23:36.067Z,84.50
2023-01-17T12:26:20.699Z,84.40
2023-01-17T12:29:17.999Z,84.50
2023-01-17T12:32:01.429Z,84.50
2023-01-17T12:34:34.963Z,85.30
2023-01-17T12:37:12.806Z,84.50
2023-01-17T12:39:44.365Z,84.60
2023-01-17T12:42:18.513Z,84.70
2023-01-17T12:44:57.885Z,84.80
2023-01-17T12:47:27.685Z,84.80
2023-01-17T12:50:05.657Z,84.80
2023-01-17T12:52:46.244Z,84.90
2023-01-17T12:55:20.151Z,85.00
2023-01-17T12:57:55.209Z,85.00
2023-01-17T13:00:29.600Z,85.60
2023-01-17T13:03:08.593Z,86.50
2023-01-17T13:05:41.654Z,87.20
2023-01-17T13:08:20.418Z,87.60
2023-01-17T13:10:52.238Z,87.70
2023-01-17T13:13:24.097Z,88.60
2023-01-17T13:15:55.247Z,87.80
2023-01-17T13:18:29.473Z,87.80
2023-01-17T13:21:22.540Z,88.60
2023-01-17T13:24:21.123Z,87.70
2023-01-17T13:27:09.837Z,87.60
2023-01-17T13:29:44.205Z,87.50
2023-01-17T13:32:30.043Z,87.40
2023-01-17T13:35:18.692Z,87.40
2023-01-17T13:38:05.154Z,87.40
2023-01-17T13:40:41.184Z,87.40
2023-01-17T13:43:15.536Z,87.40
2023-01-17T13:45:54.219Z,87.30
2023-01-17T13:48:31.260Z,87.40
2023-01-17T13:51:03.181Z,88.10
2023-01-17T13:53:56.752Z,87.30
2023-01-17T13:56:30.768Z,87.10
2023-01-17T13:59:27.013Z,87.20
2023-01-17T14:01:55.600Z,87.00
2023-01-17T14:04:25.680Z,87.80
2023-01-17T14:07:03.858Z,86.80
2023-01-17T14:09:42.566Z,86.80
2023-01-17T14:12:31.745Z,86.80
2023-01-17T14:15:02.158Z,86.70
2023-01-17T14:17:56.842Z,86.70
2023-01-17T14:20:51.618Z,86.50
2023-01-17T14:24:08.008Z,86.50
2023-01-17T14:26:46.310Z,86.40
2023-01-17T14:29:55.918Z,86.70
2023-01-17T14:32:27.209Z,86.80
2023-01-17T14:34:57.307Z,86.90
2023-01-17T14:37:38.638Z,87.00
2023-01-17T14:40:20.698Z,87.10
2023-01-17T14:42:57.426Z,87.20
2023-01-17T14:45:28.687Z,87.10
2023-01-17T14:47:59.231Z,87.00
2023-01-17T14:50:30.278Z,87.00
2023-01-17T14:53:18.640Z,86.70
2023-01-17T14:55:58.317Z,86.80
2023-01-17T14:58:30.089Z,86.10
2023-01-17T15:01:01.321Z,85.30
2023-01-17T15:03:30.925Z,85.40
2023-01-17T15:06:10.636Z,85.20
2023-01-17T15:08:39.977Z,84.80
2023-01-17T15:11:12.293Z,84.50
2023-01-17T15:13:45.622Z,84.80
2023-01-17T15:16:23.008Z,84.80
2023-01-17T15:18:52.364Z,84.70
2023-01-17T15:21:22.728Z,91.80
2023-01-17T15:23:54.690Z,90.90
2023-01-17T15:26:26.263Z,92.20
2023-01-17T15:29:03.188Z,90.70
2023-01-17T15:31:41.979Z,90.50
2023-01-17T15:34:19.496Z,84.40
2023-01-17T15:36:49.837Z,84.80
2023-01-17T15:39:22.358Z,85.20
2023-01-17T15:41:53.557Z,85.10
2023-01-17T15:44:47.071Z,85.20
2023-01-17T15:47:29.124Z,85.10
2023-01-17T15:49:57.639Z,84.90
2023-01-17T15:52:26.017Z,85.00
2023-01-17T15:54:55.516Z,84.80
2023-01-17T15:57:28.603Z,85.20
2023-01-17T16:00:00.738Z,85.30
2023-01-17T16:02:42.759Z,85.10
2023-01-17T16:05:41.849Z,85.20
2023-01-17T16:08:30.912Z,85.00
2023-01-17T16:11:02.579Z,84.90
2023-01-17T16:13:32.952Z,84.90
2023-01-17T16:16:21.156Z,85.30
2023-01-17T16:18:50.662Z,85.20
2023-01-17T16:21:22.809Z,85.10
2023-01-17T16:23:51.607Z,85.10
2023-01-17T16:26:20.417Z,85.10
2023-01-17T16:28:49.269Z,84.80
2023-01-17T16:31:19.624Z,85.60
2023-01-17T16:33:50.571Z,84.90
2023-01-17T16:36:19.580Z,85.00
2023-01-17T16:38:50.980Z,85.20
2023-01-17T16:41:19.645Z,85.30
2023-01-17T16:43:57.341Z,85.40
2023-01-17T16:46:27.513Z,85.40
2023-01-17T16:48:56.096Z,85.40
2023-01-17T16:51:24.344Z,85.50
2023-01-17T16:53:52.599Z,85.60
2023-01-17T16:56:21.497Z,85.60
2023-01-17T16:58:49.687Z,85.80
2023-01-17T17:01:21.168Z,85.80
2023-01-17T17:03:50.876Z,85.90
2023-01-17T17:06:19.137Z,86.10
2023-01-17T17:08:47.557Z,86.00
2023-01-17T17:11:18.414Z,86.10
2023-01-17T17:13:47.669Z,86.20
2023-01-17T17:16:20.386Z,86.10
2023-01-17T17:18:55.036Z,86.30
2023-01-17T17:21:23.275Z,86.30
2023-01-17T17:23:56.623Z,86.30
2023-01-17T17:26:26.838Z,86.30
2023-01-17T17:28:55.518Z,86.30
2023-01-17T17:31:24.220Z,86.30
2023-01-17T17:33:53.963Z,86.30
2023-01-17T17:36:22.271Z,86.40
2023-01-17T17:38:53.230Z,86.50
2023-01-17T17:41:23.120Z,86.40
2023-01-17T17:43:52.333Z,86.50
2023-01-17T17:46:21.169Z,86.40
2023-01-17T17:48:50.009Z,86.40
2023-01-17T17:51:28.224Z,86.40
2023-01-17T17:54:00.888Z,86.70
2023-01-17T17:56:30.936Z,86.50
2023-01-17T17:58:59.332Z,86.50
2023-01-17T18:01:27.704Z,86.70
2023-01-17T18:03:57.875Z,86.60
2023-01-17T18:06:27.645Z,86.60
2023-01-17T18:08:56.023Z,86.50
2023-01-17T18:11:26.723Z,86.60
2023-01-17T18:13:56.395Z,86.80
2023-01-17T18:16:26.603Z,86.70
2023-01-17T18:18:56.589Z,86.70
2023-01-17T18:21:28.073Z,86.80
2023-01-17T18:23:58.763Z,86.90
2023-01-17T18:26:28.615Z,86.90
2023-01-17T18:28:58.237Z,86.90
2023-01-17T18:31:28.129Z,86.90
2023-01-17T18:33:58.004Z,86.80
2023-01-17T18:36:28.753Z,86.80
2023-01-17T18:38:57.712Z,86.80
2023-01-17T18:41:29.245Z,86.80
2023-01-17T18:43:57.839Z,86.90
2023-01-17T18:46:27.477Z,87.00
2023-01-17T18:48:57.211Z,86.90
2023-01-17T18:51:29.225Z,87.00
2023-01-17T18:53:58.028Z,86.90
2023-01-17T18:56:29.577Z,87.00
2023-01-17T18:58:58.586Z,87.00
2023-01-17T19:01:28.263Z,87.00
2023-01-17T19:03:58.802Z,86.90
2023-01-17T19:06:30.336Z,86.90
2023-01-17T19:09:00.291Z,87.00
2023-01-17T19:11:29.439Z,87.00
2023-01-17T19:13:58.327Z,87.00
2023-01-17T19:16:29.071Z,87.10
2023-01-17T19:18:58.926Z,86.90
2023-01-17T19:21:29.355Z,87.00
2023-01-17T19:23:58.758Z,87.10
2023-01-17T19:26:27.776Z,88.00
2023-01-17T19:28:58.652Z,87.10
2023-01-17T19:31:28.948Z,87.20
2023-01-17T19:33:59.096Z,87.10
2023-01-17T19:36:32.217Z,87.90
2023-01-17T19:39:05.569Z,87.10
2023-01-17T19:41:35.778Z,87.00
2023-01-17T19:44:07.120Z,87.00
2023-01-17T19:46:36.450Z,86.80
2023-01-17T19:49:06.464Z,86.90
2023-01-17T19:51:36.500Z,86.90
2023-01-17T19:54:06.471Z,86.90
2023-01-17T19:56:35.764Z,86.90
2023-01-17T19:59:04.080Z,87.00
2023-01-17T20:01:34.087Z,87.00
2023-01-17T20:04:04.321Z,87.00
2023-01-17T20:06:35.809Z,87.00
2023-01-17T20:09:05.040Z,86.80
2023-01-17T20:11:33.700Z,86.80
2023-01-17T20:14:02.057Z,86.80
2023-01-17T20:16:31.914Z,86.70
2023-01-17T20:19:02.497Z,86.80
2023-01-17T20:21:32.789Z,86.80
2023-01-17T20:24:04.265Z,86.70
2023-01-17T20:26:35.720Z,86.70
2023-01-17T20:29:07.413Z,86.80
2023-01-17T20:31:38.089Z,86.90
2023-01-17T20:34:08.050Z,86.90
2023-01-17T20:36:36.966Z,86.80
2023-01-17T20:39:08.575Z,86.90
2023-01-17T20:41:38.555Z,86.80
2023-01-17T20:44:10.122Z,86.90
2023-01-17T20:46:41.197Z,86.90
2023-01-17T20:49:14.613Z,86.80
2023-01-17T20:51:44.211Z,86.80
2023-01-17T20:54:15.395Z,86.80
2023-01-17T20:56:43.988Z,87.70
2023-01-17T20:59:14.943Z,86.90
2023-01-17T21:01:44.753Z,86.80
2023-01-17T21:04:14.630Z,86.80
2023-01-17T21:06:44.109Z,86.90
2023-01-17T21:09:17.101Z,86.80
2023-01-17T21:11:45.464Z,86.90
2023-01-17T21:14:14.039Z,87.70
2023-01-17T21:16:42.404Z,86.80
2023-01-17T21:19:11.941Z,86.90
2023-01-17T21:21:40.384Z,86.80
2023-01-17T21:24:08.909Z,86.90
2023-01-17T21:26:39.937Z,86.90
2023-01-17T21:29:09.252Z,87.80
2023-01-17T21:31:39.577Z,87.00
2023-01-17T21:34:09.834Z,86.90
2023-01-17T21:36:40.153Z,86.90
2023-01-17T21:39:12.373Z,86.90
2023-01-17T21:41:43.036Z,86.80
2023-01-17T21:44:15.757Z,86.90
2023-01-17T21:46:44.168Z,86.90
2023-01-17T21:49:13.004Z,86.90
2023-01-17T21:51:59.636Z,86.90
2023-01-17T21:54:43.818Z,86.90
2023-01-17T21:57:31.912Z,86.90
2023-01-17T22:00:00.119Z,87.10
2023-01-17T22:02:28.545Z,87.80
2023-01-17T22:04:56.806Z,87.00
2023-01-17T22:07:27.019Z,87.00
2023-01-17T22:09:56.745Z,87.00
2023-01-17T22:12:26.528Z,87.00
2023-01-17T22:14:54.980Z,87.10
2023-01-17T22:17:23.483Z,87.10
2023-01-17T22:19:51.719Z,87.00
2023-01-17T22:22:20.499Z,87.10
2023-01-17T22:24:48.702Z,87.10
2023-01-17T22:27:16.899Z,87.10
2023-01-17T22:29:46.528Z,87.10
2023-01-17T22:32:14.776Z,87.20
2023-01-17T22:34:43.060Z,87.30
2023-01-17T22:37:11.425Z,87.30
2023-01-17T22:39:40.213Z,87.20
2023-01-17T22:42:09.332Z,87.30
2023-01-17T22:44:37.543Z,87.20
2023-01-17T22:47:07.237Z,87.20
2023-01-17T22:49:35.400Z,88.00
2023-01-17T22:52:03.643Z,87.10
2023-01-17T22:54:31.889Z,87.10
2023-01-17T22:57:00.205Z,87.10
2023-01-17T22:59:28.440Z,87.10
2023-01-17T23:01:56.741Z,87.20
2023-01-17T23:04:26.287Z,87.90
2023-01-17T23:06:54.880Z,87.10
2023-01-17T23:09:23.134Z,87.10
2023-01-17T23:11:54.100Z,87.10
2023-01-17T23:14:24.882Z,87.90
2023-01-17T23:17:12.617Z,86.90
2023-01-17T23:19:47.205Z,87.10
2023-01-17T23:22:20.166Z,87.10
2023-01-17T23:24:51.852Z,87.10
2023-01-17T23:27:40.307Z,87.10
2023-01-17T23:30:12.973Z,87.20
2023-01-17T23:32:44.551Z,87.20
2023-01-17T23:35:14.164Z,87.20
2023-01-17T23:38:00.046Z,87.30
2023-01-17T23:40:28.643Z,87.40
2023-01-17T23:43:14.134Z,87.40
2023-01-17T23:45:42.421Z,87.40
2023-01-17T23:48:10.942Z,87.40
2023-01-17T23:50:41.828Z,87.40
2023-01-17T23:53:10.747Z,87.30
2023-01-17T23:55:40.712Z,87.40
2023-01-17T23:58:10.561Z,87.40
